sensor_id;sensor_type;location;lat;lon;timestamp;P1;durP1;ratioP1;P2;durP2;ratioP2
14890;SDS011;7537;48.014;11.590;2023-04-25T00:02:40;1.77;;;1.87;;
14890;SDS011;7537;48.014;11.590;2023-04-25T00:08:07;1.49;;;1.50;;
14890;SDS011;7537;48.014;11.590;2023-04-25T00:13:35;3.04;;;1.63;;
14890;SDS011;7537;48.014;11.590;2023-04-25T00:19:03;1.41;;;1.49;;
14890;SDS011;7537;48.014;11.590;2023-04-25T00:24:34;1.91;;;1.94;;
14890;SDS011;7537;48.014;11.590;2023-04-25T00:30:02;1.73;;;1.83;;
14890;SDS011;7537;48.014;11.590;2023-04-25T00:35:29;1.98;;;2.01;;
14890;SDS011;7537;48.014;11.590;2023-04-25T00:40:56;2.16;;;2.14;;
14890;SDS011;7537;48.014;11.590;2023-04-25T00:46:24;2.17;;;2.21;;
14890;SDS011;7537;48.014;11.590;2023-04-25T00:51:53;3.30;;;2.04;;
14890;SDS011;7537;48.014;11.590;2023-04-25T00:57:21;1.78;;;1.67;;
14890;SDS011;7537;48.014;11.590;2023-04-25T01:02:48;2.06;;;2.17;;
14890;SDS011;7537;48.014;11.590;2023-04-25T01:08:16;2.46;;;2.08;;
14890;SDS011;7537;48.014;11.590;2023-04-25T01:13:43;1.96;;;2.04;;
14890;SDS011;7537;48.014;11.590;2023-04-25T01:19:12;2.20;;;2.24;;
14890;SDS011;7537;48.014;11.590;2023-04-25T01:24:48;1.89;;;1.92;;
14890;SDS011;7537;48.014;11.590;2023-04-25T01:30:15;2.85;;;1.84;;
14890;SDS011;7537;48.014;11.590;2023-04-25T01:35:42;2.13;;;2.16;;
14890;SDS011;7537;48.014;11.590;2023-04-25T01:41:10;2.54;;;2.32;;
14890;SDS011;7537;48.014;11.590;2023-04-25T01:46:37;1.82;;;1.94;;
14890;SDS011;7537;48.014;11.590;2023-04-25T01:52:05;1.46;;;1.46;;
14890;SDS011;7537;48.014;11.590;2023-04-25T01:57:32;2.21;;;2.21;;
14890;SDS011;7537;48.014;11.590;2023-04-25T02:03:01;1.82;;;1.87;;
14890;SDS011;7537;48.014;11.590;2023-04-25T02:08:29;5.34;;;2.64;;
14890;SDS011;7537;48.014;11.590;2023-04-25T02:13:56;2.17;;;2.22;;
14890;SDS011;7537;48.014;11.590;2023-04-25T02:19:23;2.20;;;2.22;;
14890;SDS011;7537;48.014;11.590;2023-04-25T02:24:54;4.01;;;2.27;;
14890;SDS011;7537;48.014;11.590;2023-04-25T02:30:22;2.05;;;1.94;;
14890;SDS011;7537;48.014;11.590;2023-04-25T02:35:50;3.30;;;2.31;;
14890;SDS011;7537;48.014;11.590;2023-04-25T02:41:19;2.28;;;2.04;;
14890;SDS011;7537;48.014;11.590;2023-04-25T02:46:47;1.87;;;1.95;;
14890;SDS011;7537;48.014;11.590;2023-04-25T02:52:14;2.54;;;2.04;;
14890;SDS011;7537;48.014;11.590;2023-04-25T02:57:41;3.08;;;2.11;;
14890;SDS011;7537;48.014;11.590;2023-04-25T03:03:09;1.67;;;1.83;;
14890;SDS011;7537;48.014;11.590;2023-04-25T03:08:37;3.95;;;2.12;;
14890;SDS011;7537;48.014;11.590;2023-04-25T03:14:05;2.93;;;1.72;;
14890;SDS011;7537;48.014;11.590;2023-04-25T03:19:33;1.72;;;1.79;;
14890;SDS011;7537;48.014;11.590;2023-04-25T03:25:05;2.18;;;1.95;;
14890;SDS011;7537;48.014;11.590;2023-04-25T03:30:32;2.82;;;2.63;;
14890;SDS011;7537;48.014;11.590;2023-04-25T03:36:00;2.44;;;2.39;;
14890;SDS011;7537;48.014;11.590;2023-04-25T03:41:29;6.96;;;2.91;;
14890;SDS011;7537;48.014;11.590;2023-04-25T03:46:56;2.22;;;2.18;;
14890;SDS011;7537;48.014;11.590;2023-04-25T03:52:24;4.19;;;2.85;;
14890;SDS011;7537;48.014;11.590;2023-04-25T03:57:51;3.38;;;2.46;;
14890;SDS011;7537;48.014;11.590;2023-04-25T04:03:20;3.05;;;2.16;;
14890;SDS011;7537;48.014;11.590;2023-04-25T04:08:47;2.28;;;2.08;;
14890;SDS011;7537;48.014;11.590;2023-04-25T04:14:16;2.81;;;2.58;;
14890;SDS011;7537;48.014;11.590;2023-04-25T04:19:43;1.82;;;1.71;;
14890;SDS011;7537;48.014;11.590;2023-04-25T04:25:14;2.18;;;2.28;;
14890;SDS011;7537;48.014;11.590;2023-04-25T04:30:41;2.51;;;2.59;;
14890;SDS011;7537;48.014;11.590;2023-04-25T04:36:09;7.99;;;2.90;;
14890;SDS011;7537;48.014;11.590;2023-04-25T04:41:36;3.36;;;2.55;;
14890;SDS011;7537;48.014;11.590;2023-04-25T04:47:05;7.11;;;2.12;;
14890;SDS011;7537;48.014;11.590;2023-04-25T04:52:34;3.79;;;2.69;;
14890;SDS011;7537;48.014;11.590;2023-04-25T04:58:03;2.40;;;2.41;;
14890;SDS011;7537;48.014;11.590;2023-04-25T05:03:30;3.54;;;3.01;;
14890;SDS011;7537;48.014;11.590;2023-04-25T05:08:57;3.72;;;2.78;;
14890;SDS011;7537;48.014;11.590;2023-04-25T05:14:25;2.71;;;2.84;;
14890;SDS011;7537;48.014;11.590;2023-04-25T05:19:54;2.44;;;2.33;;
14890;SDS011;7537;48.014;11.590;2023-04-25T05:25:24;3.09;;;2.71;;
14890;SDS011;7537;48.014;11.590;2023-04-25T05:30:52;2.47;;;2.22;;
14890;SDS011;7537;48.014;11.590;2023-04-25T05:36:19;2.97;;;1.86;;
14890;SDS011;7537;48.014;11.590;2023-04-25T05:41:47;2.94;;;2.24;;
14890;SDS011;7537;48.014;11.590;2023-04-25T05:47:15;2.06;;;2.19;;
14890;SDS011;7537;48.014;11.590;2023-04-25T05:52:43;4.62;;;2.40;;
14890;SDS011;7537;48.014;11.590;2023-04-25T05:58:10;2.11;;;2.16;;
14890;SDS011;7537;48.014;11.590;2023-04-25T06:03:38;3.87;;;3.43;;
14890;SDS011;7537;48.014;11.590;2023-04-25T06:09:05;2.26;;;2.33;;
14890;SDS011;7537;48.014;11.590;2023-04-25T06:14:32;5.76;;;2.72;;
14890;SDS011;7537;48.014;11.590;2023-04-25T06:20:00;3.06;;;2.21;;
14890;SDS011;7537;48.014;11.590;2023-04-25T06:25:32;7.38;;;2.36;;
14890;SDS011;7537;48.014;11.590;2023-04-25T06:30:59;1.84;;;1.95;;
14890;SDS011;7537;48.014;11.590;2023-04-25T06:36:27;2.89;;;2.40;;
14890;SDS011;7537;48.014;11.590;2023-04-25T06:41:54;3.97;;;2.92;;
14890;SDS011;7537;48.014;11.590;2023-04-25T06:47:22;4.00;;;2.36;;
14890;SDS011;7537;48.014;11.590;2023-04-25T06:52:49;3.36;;;1.99;;
14890;SDS011;7537;48.014;11.590;2023-04-25T06:58:18;2.64;;;2.54;;
14890;SDS011;7537;48.014;11.590;2023-04-25T07:03:46;2.34;;;2.45;;
14890;SDS011;7537;48.014;11.590;2023-04-25T07:09:13;3.06;;;2.53;;
14890;SDS011;7537;48.014;11.590;2023-04-25T07:14:41;2.57;;;2.62;;
14890;SDS011;7537;48.014;11.590;2023-04-25T07:20:09;5.96;;;2.75;;
14890;SDS011;7537;48.014;11.590;2023-04-25T07:25:43;3.29;;;2.73;;
14890;SDS011;7537;48.014;11.590;2023-04-25T07:31:12;2.87;;;2.71;;
14890;SDS011;7537;48.014;11.590;2023-04-25T07:36:39;2.31;;;1.57;;
14890;SDS011;7537;48.014;11.590;2023-04-25T07:42:07;2.36;;;2.15;;
14890;SDS011;7537;48.014;11.590;2023-04-25T07:47:34;4.51;;;2.26;;
14890;SDS011;7537;48.014;11.590;2023-04-25T07:53:02;1.60;;;1.74;;
14890;SDS011;7537;48.014;11.590;2023-04-25T07:58:29;1.79;;;1.79;;
14890;SDS011;7537;48.014;11.590;2023-04-25T08:03:58;4.22;;;2.36;;
14890;SDS011;7537;48.014;11.590;2023-04-25T08:09:25;1.44;;;1.51;;
14890;SDS011;7537;48.014;11.590;2023-04-25T08:14:53;2.61;;;2.21;;
14890;SDS011;7537;48.014;11.590;2023-04-25T08:20:20;3.12;;;2.11;;
14890;SDS011;7537;48.014;11.590;2023-04-25T08:25:51;1.51;;;1.58;;
14890;SDS011;7537;48.014;11.590;2023-04-25T08:31:18;2.69;;;1.62;;
14890;SDS011;7537;48.014;11.590;2023-04-25T08:36:48;1.68;;;1.59;;
14890;SDS011;7537;48.014;11.590;2023-04-25T08:42:16;1.67;;;1.29;;
14890;SDS011;7537;48.014;11.590;2023-04-25T08:47:43;2.18;;;2.08;;
14890;SDS011;7537;48.014;11.590;2023-04-25T08:53:12;2.61;;;2.14;;
14890;SDS011;7537;48.014;11.590;2023-04-25T08:58:41;1.55;;;1.69;;
14890;SDS011;7537;48.014;11.590;2023-04-25T09:04:09;2.96;;;1.98;;
14890;SDS011;7537;48.014;11.590;2023-04-25T09:09:38;2.25;;;1.74;;
14890;SDS011;7537;48.014;11.590;2023-04-25T09:15:06;2.92;;;1.81;;
14890;SDS011;7537;48.014;11.590;2023-04-25T09:20:34;3.81;;;1.91;;
14890;SDS011;7537;48.014;11.590;2023-04-25T09:26:21;3.17;;;1.61;;
14890;SDS011;7537;48.014;11.590;2023-04-25T09:31:48;2.97;;;1.75;;
14890;SDS011;7537;48.014;11.590;2023-04-25T09:37:19;1.87;;;1.91;;
14890;SDS011;7537;48.014;11.590;2023-04-25T09:42:50;2.54;;;2.02;;
14890;SDS011;7537;48.014;11.590;2023-04-25T09:48:18;2.54;;;1.94;;
14890;SDS011;7537;48.014;11.590;2023-04-25T09:53:46;1.51;;;1.58;;
14890;SDS011;7537;48.014;11.590;2023-04-25T09:59:13;1.66;;;1.73;;
14890;SDS011;7537;48.014;11.590;2023-04-25T10:04:41;1.67;;;1.31;;
14890;SDS011;7537;48.014;11.590;2023-04-25T10:10:09;2.47;;;1.18;;
14890;SDS011;7537;48.014;11.590;2023-04-25T10:15:41;1.99;;;1.56;;
14890;SDS011;7537;48.014;11.590;2023-04-25T10:21:09;1.32;;;1.32;;
14890;SDS011;7537;48.014;11.590;2023-04-25T10:26:40;1.84;;;1.25;;
14890;SDS011;7537;48.014;11.590;2023-04-25T10:32:08;1.71;;;1.21;;
14890;SDS011;7537;48.014;11.590;2023-04-25T10:37:35;4.04;;;1.28;;
14890;SDS011;7537;48.014;11.590;2023-04-25T10:48:50;1.64;;;1.74;;
14890;SDS011;7537;48.014;11.590;2023-04-25T10:54:18;1.92;;;1.67;;
14890;SDS011;7537;48.014;11.590;2023-04-25T10:59:45;1.52;;;1.33;;
14890;SDS011;7537;48.014;11.590;2023-04-25T11:05:17;3.63;;;1.41;;
14890;SDS011;7537;48.014;11.590;2023-04-25T11:10:46;4.00;;;1.66;;
14890;SDS011;7537;48.014;11.590;2023-04-25T11:16:14;1.16;;;1.24;;
14890;SDS011;7537;48.014;11.590;2023-04-25T11:21:42;2.52;;;2.30;;
14890;SDS011;7537;48.014;11.590;2023-04-25T11:27:14;2.30;;;2.26;;
14890;SDS011;7537;48.014;11.590;2023-04-25T11:32:41;2.71;;;2.28;;
14890;SDS011;7537;48.014;11.590;2023-04-25T11:38:08;1.83;;;1.85;;
14890;SDS011;7537;48.014;11.590;2023-04-25T11:43:36;2.24;;;1.69;;
14890;SDS011;7537;48.014;11.590;2023-04-25T11:49:03;3.12;;;2.13;;
14890;SDS011;7537;48.014;11.590;2023-04-25T11:54:32;1.70;;;1.76;;
14890;SDS011;7537;48.014;11.590;2023-04-25T12:00:12;1.74;;;1.86;;
14890;SDS011;7537;48.014;11.590;2023-04-25T12:05:39;1.99;;;2.01;;
14890;SDS011;7537;48.014;11.590;2023-04-25T12:11:17;2.58;;;1.97;;
14890;SDS011;7537;48.014;11.590;2023-04-25T12:16:48;2.08;;;2.18;;
14890;SDS011;7537;48.014;11.590;2023-04-25T12:22:19;1.78;;;1.88;;
14890;SDS011;7537;48.014;11.590;2023-04-25T12:27:52;1.48;;;1.55;;
14890;SDS011;7537;48.014;11.590;2023-04-25T12:33:21;2.12;;;1.74;;
14890;SDS011;7537;48.014;11.590;2023-04-25T12:38:48;0.89;;;1.01;;
14890;SDS011;7537;48.014;11.590;2023-04-25T12:44:16;0.80;;;0.89;;
14890;SDS011;7537;48.014;11.590;2023-04-25T12:49:43;0.69;;;0.80;;
14890;SDS011;7537;48.014;11.590;2023-04-25T12:55:11;0.68;;;0.77;;
14890;SDS011;7537;48.014;11.590;2023-04-25T13:00:40;0.55;;;0.59;;
14890;SDS011;7537;48.014;11.590;2023-04-25T13:06:07;0.71;;;0.41;;
14890;SDS011;7537;48.014;11.590;2023-04-25T13:11:36;0.36;;;0.39;;
14890;SDS011;7537;48.014;11.590;2023-04-25T13:17:04;1.86;;;0.77;;
14890;SDS011;7537;48.014;11.590;2023-04-25T13:22:31;1.10;;;1.17;;
14890;SDS011;7537;48.014;11.590;2023-04-25T13:28:02;6.79;;;1.26;;
14890;SDS011;7537;48.014;11.590;2023-04-25T13:33:31;2.20;;;1.04;;
14890;SDS011;7537;48.014;11.590;2023-04-25T13:38:59;0.49;;;0.56;;
14890;SDS011;7537;48.014;11.590;2023-04-25T13:44:27;0.74;;;0.82;;
14890;SDS011;7537;48.014;11.590;2023-04-25T13:49:56;0.80;;;0.88;;
14890;SDS011;7537;48.014;11.590;2023-04-25T13:55:24;1.57;;;1.11;;
14890;SDS011;7537;48.014;11.590;2023-04-25T14:00:51;1.07;;;1.17;;
14890;SDS011;7537;48.014;11.590;2023-04-25T14:06:20;0.79;;;0.72;;
14890;SDS011;7537;48.014;11.590;2023-04-25T14:11:49;0.68;;;0.69;;
14890;SDS011;7537;48.014;11.590;2023-04-25T14:17:17;1.36;;;1.11;;
14890;SDS011;7537;48.014;11.590;2023-04-25T14:22:45;1.46;;;1.37;;
14890;SDS011;7537;48.014;11.590;2023-04-25T14:28:16;0.79;;;0.82;;
14890;SDS011;7537;48.014;11.590;2023-04-25T14:33:43;1.73;;;1.41;;
14890;SDS011;7537;48.014;11.590;2023-04-25T14:39:12;1.08;;;1.08;;
14890;SDS011;7537;48.014;11.590;2023-04-25T14:44:40;2.84;;;2.04;;
14890;SDS011;7537;48.014;11.590;2023-04-25T14:50:08;4.64;;;1.55;;
14890;SDS011;7537;48.014;11.590;2023-04-25T14:55:35;0.73;;;0.83;;
14890;SDS011;7537;48.014;11.590;2023-04-25T15:01:03;0.56;;;0.57;;
14890;SDS011;7537;48.014;11.590;2023-04-25T15:06:30;0.59;;;0.65;;
14890;SDS011;7537;48.014;11.590;2023-04-25T15:11:59;0.83;;;0.77;;
14890;SDS011;7537;48.014;11.590;2023-04-25T15:17:26;0.56;;;0.59;;
14890;SDS011;7537;48.014;11.590;2023-04-25T15:22:56;0.64;;;0.71;;
14890;SDS011;7537;48.014;11.590;2023-04-25T15:28:27;0.99;;;1.12;;
14890;SDS011;7537;48.014;11.590;2023-04-25T15:33:57;0.96;;;0.86;;
14890;SDS011;7537;48.014;11.590;2023-04-25T15:39:29;1.61;;;1.63;;
14890;SDS011;7537;48.014;11.590;2023-04-25T15:44:58;1.04;;;1.18;;
14890;SDS011;7537;48.014;11.590;2023-04-25T15:50:25;1.50;;;0.88;;
14890;SDS011;7537;48.014;11.590;2023-04-25T15:55:53;0.88;;;0.97;;
14890;SDS011;7537;48.014;11.590;2023-04-25T16:01:20;0.73;;;0.80;;
14890;SDS011;7537;48.014;11.590;2023-04-25T16:06:47;5.34;;;2.52;;
14890;SDS011;7537;48.014;11.590;2023-04-25T16:12:17;1.16;;;1.28;;
14890;SDS011;7537;48.014;11.590;2023-04-25T16:17:46;0.83;;;0.94;;
14890;SDS011;7537;48.014;11.590;2023-04-25T16:23:14;1.41;;;1.49;;
14890;SDS011;7537;48.014;11.590;2023-04-25T16:28:45;2.04;;;1.51;;
14890;SDS011;7537;48.014;11.590;2023-04-25T16:34:12;1.44;;;1.47;;
14890;SDS011;7537;48.014;11.590;2023-04-25T16:39:40;0.55;;;0.63;;
14890;SDS011;7537;48.014;11.590;2023-04-25T16:45:08;0.81;;;0.88;;
14890;SDS011;7537;48.014;11.590;2023-04-25T16:50:37;1.09;;;1.18;;
14890;SDS011;7537;48.014;11.590;2023-04-25T16:56:12;1.30;;;1.36;;
14890;SDS011;7537;48.014;11.590;2023-04-25T17:01:40;1.46;;;1.58;;
14890;SDS011;7537;48.014;11.590;2023-04-25T17:07:18;1.32;;;1.43;;
14890;SDS011;7537;48.014;11.590;2023-04-25T17:12:46;1.12;;;1.11;;
14890;SDS011;7537;48.014;11.590;2023-04-25T17:18:21;1.51;;;1.44;;
14890;SDS011;7537;48.014;11.590;2023-04-25T17:23:50;1.44;;;1.57;;
14890;SDS011;7537;48.014;11.590;2023-04-25T17:29:21;2.52;;;2.05;;
14890;SDS011;7537;48.014;11.590;2023-04-25T17:34:48;4.93;;;1.84;;
14890;SDS011;7537;48.014;11.590;2023-04-25T17:40:16;1.34;;;1.31;;
14890;SDS011;7537;48.014;11.590;2023-04-25T17:45:44;1.73;;;1.79;;
14890;SDS011;7537;48.014;11.590;2023-04-25T17:51:11;1.64;;;1.69;;
14890;SDS011;7537;48.014;11.590;2023-04-25T17:56:41;1.93;;;2.01;;
14890;SDS011;7537;48.014;11.590;2023-04-25T18:02:09;2.54;;;1.64;;
14890;SDS011;7537;48.014;11.590;2023-04-25T18:07:36;1.70;;;1.78;;
14890;SDS011;7537;48.014;11.590;2023-04-25T18:13:04;1.87;;;1.85;;
14890;SDS011;7537;48.014;11.590;2023-04-25T18:18:31;1.76;;;1.86;;
14890;SDS011;7537;48.014;11.590;2023-04-25T18:23:59;3.12;;;1.99;;
14890;SDS011;7537;48.014;11.590;2023-04-25T18:29:31;2.15;;;2.21;;
14890;SDS011;7537;48.014;11.590;2023-04-25T18:35:03;2.57;;;1.81;;
14890;SDS011;7537;48.014;11.590;2023-04-25T18:40:31;2.19;;;2.34;;
14890;SDS011;7537;48.014;11.590;2023-04-25T18:46:00;1.76;;;1.83;;
14890;SDS011;7537;48.014;11.590;2023-04-25T18:51:29;1.63;;;1.68;;
14890;SDS011;7537;48.014;11.590;2023-04-25T18:56:56;2.21;;;2.34;;
14890;SDS011;7537;48.014;11.590;2023-04-25T19:02:24;1.54;;;1.64;;
14890;SDS011;7537;48.014;11.590;2023-04-25T19:07:55;2.46;;;2.40;;
14890;SDS011;7537;48.014;11.590;2023-04-25T19:13:23;3.16;;;2.44;;
14890;SDS011;7537;48.014;11.590;2023-04-25T19:18:54;2.46;;;2.55;;
14890;SDS011;7537;48.014;11.590;2023-04-25T19:24:25;2.28;;;2.37;;
14890;SDS011;7537;48.014;11.590;2023-04-25T19:29:56;2.95;;;2.55;;
14890;SDS011;7537;48.014;11.590;2023-04-25T19:35:26;2.50;;;2.61;;
14890;SDS011;7537;48.014;11.590;2023-04-25T19:40:58;2.74;;;2.84;;
14890;SDS011;7537;48.014;11.590;2023-04-25T19:46:26;2.58;;;2.72;;
14890;SDS011;7537;48.014;11.590;2023-04-25T19:51:54;3.27;;;3.30;;
14890;SDS011;7537;48.014;11.590;2023-04-25T19:57:23;3.27;;;3.24;;
14890;SDS011;7537;48.014;11.590;2023-04-25T20:02:50;4.46;;;3.68;;
14890;SDS011;7537;48.014;11.590;2023-04-25T20:08:18;4.44;;;4.36;;
14890;SDS011;7537;48.014;11.590;2023-04-25T20:13:46;3.80;;;3.43;;
14890;SDS011;7537;48.014;11.590;2023-04-25T20:19:13;3.39;;;3.47;;
14890;SDS011;7537;48.014;11.590;2023-04-25T20:24:41;3.83;;;3.68;;
14890;SDS011;7537;48.014;11.590;2023-04-25T20:30:14;5.94;;;4.54;;
14890;SDS011;7537;48.014;11.590;2023-04-25T20:35:41;4.22;;;3.90;;
14890;SDS011;7537;48.014;11.590;2023-04-25T20:41:09;4.73;;;4.41;;
14890;SDS011;7537;48.014;11.590;2023-04-25T20:46:36;5.09;;;4.58;;
14890;SDS011;7537;48.014;11.590;2023-04-25T20:52:04;3.53;;;3.60;;
14890;SDS011;7537;48.014;11.590;2023-04-25T20:57:32;3.61;;;3.74;;
14890;SDS011;7537;48.014;11.590;2023-04-25T21:03:01;3.52;;;3.61;;
14890;SDS011;7537;48.014;11.590;2023-04-25T21:08:29;3.09;;;3.24;;
14890;SDS011;7537;48.014;11.590;2023-04-25T21:13:56;4.61;;;3.74;;
14890;SDS011;7537;48.014;11.590;2023-04-25T21:19:24;3.09;;;3.11;;
14890;SDS011;7537;48.014;11.590;2023-04-25T21:24:51;3.78;;;3.85;;
14890;SDS011;7537;48.014;11.590;2023-04-25T21:30:23;3.71;;;3.64;;
14890;SDS011;7537;48.014;11.590;2023-04-25T21:35:53;3.88;;;3.39;;
14890;SDS011;7537;48.014;11.590;2023-04-25T21:41:20;3.76;;;3.88;;
14890;SDS011;7537;48.014;11.590;2023-04-25T21:46:48;3.15;;;3.26;;
14890;SDS011;7537;48.014;11.590;2023-04-25T21:52:15;2.77;;;2.71;;
14890;SDS011;7537;48.014;11.590;2023-04-25T21:57:43;2.90;;;2.98;;
14890;SDS011;7537;48.014;11.590;2023-04-25T22:03:10;3.13;;;3.01;;
14890;SDS011;7537;48.014;11.590;2023-04-25T22:08:39;2.44;;;2.43;;
14890;SDS011;7537;48.014;11.590;2023-04-25T22:14:10;2.81;;;2.87;;
14890;SDS011;7537;48.014;11.590;2023-04-25T22:19:37;2.66;;;2.77;;
14890;SDS011;7537;48.014;11.590;2023-04-25T22:25:05;2.56;;;2.72;;
14890;SDS011;7537;48.014;11.590;2023-04-25T22:30:44;2.51;;;2.69;;
14890;SDS011;7537;48.014;11.590;2023-04-25T22:36:13;2.41;;;2.48;;
14890;SDS011;7537;48.014;11.590;2023-04-25T22:41:42;4.39;;;3.18;;
14890;SDS011;7537;48.014;11.590;2023-04-25T22:47:09;2.88;;;2.99;;
14890;SDS011;7537;48.014;11.590;2023-04-25T22:52:38;3.03;;;3.11;;
14890;SDS011;7537;48.014;11.590;2023-04-25T22:58:05;3.34;;;3.42;;
14890;SDS011;7537;48.014;11.590;2023-04-25T23:03:32;3.10;;;3.22;;
14890;SDS011;7537;48.014;11.590;2023-04-25T23:09:00;5.07;;;3.56;;
14890;SDS011;7537;48.014;11.590;2023-04-25T23:14:28;3.89;;;3.74;;
14890;SDS011;7537;48.014;11.590;2023-04-25T23:19:57;3.39;;;3.41;;
14890;SDS011;7537;48.014;11.590;2023-04-25T23:25:25;3.42;;;3.56;;
14890;SDS011;7537;48.014;11.590;2023-04-25T23:31:02;3.32;;;3.44;;
14890;SDS011;7537;48.014;11.590;2023-04-25T23:36:30;3.09;;;3.16;;
14890;SDS011;7537;48.014;11.590;2023-04-25T23:41:57;3.51;;;3.65;;
14890;SDS011;7537;48.014;11.590;2023-04-25T23:47:24;5.21;;;3.76;;
14890;SDS011;7537;48.014;11.590;2023-04-25T23:52:53;4.74;;;4.05;;
14890;SDS011;7537;48.014;11.590;2023-04-25T23:58:21;3.22;;;3.41;;
